Time,TemperatureF,DewpointF,PressureIn,WindDirection,WindDirectionDegrees,WindSpeedMPH,WindSpeedGustMPH,Humidity,HourlyPrecipIn,Conditions,Clouds,dailyrainin,SoftwareType,DateUTC
2013-01-11 00:05:00,27.8,21.2,30.54,West,260,0.0,3.0,76,0.00,,,0.06,VWS V14.01,2013-01-11 05:05:00,
2013-01-11 00:10:00,27.8,21.5,30.54,South,171,4.5,6.0,77,0.00,,,0.00,VWS V14.01,2013-01-11 05:10:00,
2013-01-11 00:15:00,28.0,22.3,30.54,South,171,6.0,6.0,79,0.00,,,0.00,VWS V14.01,2013-01-11 05:15:00,
2013-01-11 00:20:00,28.1,22.4,30.55,SSE,162,3.0,6.0,79,0.00,,,0.00,VWS V14.01,2013-01-11 05:20:00,
2013-01-11 00:25:00,28.3,22.0,30.55,SSE,162,0.0,6.0,77,0.00,,,0.00,VWS V14.01,2013-01-11 05:25:00,
2013-01-11 00:30:00,28.1,22.1,30.55,SSE,162,0.0,6.0,78,0.00,,,0.00,VWS V14.01,2013-01-11 05:30:00,
2013-01-11 00:35:00,27.8,21.9,30.55,SSE,162,0.0,6.0,78,0.00,,,0.00,VWS V14.01,2013-01-11 05:35:00,
2013-01-11 00:45:00,27.2,21.6,30.55,WSW,258,0.0,3.0,79,0.00,,,0.00,VWS V14.01,2013-01-11 05:45:00,
2013-01-11 00:50:00,26.9,21.3,30.55,West,281,0.0,1.5,79,0.00,,,0.00,VWS V14.01,2013-01-11 05:50:00,
2013-01-11 00:55:00,26.9,21.3,30.55,WNW,282,0.0,1.5,79,0.00,,,0.00,VWS V14.01,2013-01-11 05:55:00,
2013-01-11 01:05:00,26.5,20.9,30.55,WNW,282,0.0,1.5,79,0.00,,,0.00,VWS V14.01,2013-01-11 06:05:00,
2013-01-11 01:15:00,26.0,20.7,30.55,West,281,0.0,1.5,80,0.00,,,0.00,VWS V14.01,2013-01-11 06:15:00,
2013-01-11 01:20:00,25.9,21.2,30.55,West,281,0.0,1.5,82,0.00,,,0.00,VWS V14.01,2013-01-11 06:20:00,
2013-01-11 01:25:00,25.7,20.7,30.55,West,281,0.0,1.5,81,0.00,,,0.00,VWS V14.01,2013-01-11 06:25:00,
2013-01-11 01:35:00,25.4,20.4,30.54,WNW,282,0.0,1.5,81,0.00,,,0.00,VWS V14.01,2013-01-11 06:35:00,
2013-01-11 01:45:00,25.3,20.3,30.54,West,281,0.0,0.0,81,0.00,,,0.00,VWS V14.01,2013-01-11 06:45:00,
2013-01-11 01:55:00,25.1,20.1,30.55,WNW,282,0.0,0.0,81,0.00,,,0.00,VWS V14.01,2013-01-11 06:55:00,
2013-01-11 02:00:00,25.0,20.0,30.55,West,281,0.0,0.0,81,0.00,,,0.00,VWS V14.01,2013-01-11 07:00:00,
2013-01-11 02:05:00,25.0,20.0,30.55,West,281,0.0,0.0,81,0.00,,,0.00,VWS V14.01,2013-01-11 07:05:00,
2013-01-11 02:15:00,24.6,19.6,30.55,West,281,0.0,1.5,81,0.00,,,0.00,VWS V14.01,2013-01-11 07:15:00,
2013-01-11 02:20:00,24.6,19.9,30.54,West,281,0.0,1.5,82,0.00,,,0.00,VWS V14.01,2013-01-11 07:20:00,
2013-01-11 02:30:00,24.3,19.6,30.54,WNW,282,0.0,1.5,82,0.00,,,0.00,VWS V14.01,2013-01-11 07:30:00,
2013-01-11 02:35:00,24.1,19.7,30.54,West,281,0.0,0.0,83,0.00,,,0.00,VWS V14.01,2013-01-11 07:35:00,
2013-01-11 02:45:00,24.0,19.6,30.54,West,281,0.0,0.0,83,0.00,,,0.00,VWS V14.01,2013-01-11 07:45:00,
2013-01-11 02:50:00,23.8,19.4,30.54,West,281,0.0,0.0,83,0.00,,,0.00,VWS V14.01,2013-01-11 07:50:00,
2013-01-11 03:00:00,23.7,19.3,30.54,West,281,0.0,0.0,83,0.00,,,0.00,VWS V14.01,2013-01-11 08:00:00,
2013-01-11 03:06:00,23.5,19.1,30.52,WNW,282,0.0,0.0,83,0.00,,,0.00,VWS V14.01,2013-01-11 08:06:00,
2013-01-11 03:15:00,23.5,19.4,30.52,West,281,0.0,0.0,84,0.00,,,0.00,VWS V14.01,2013-01-11 08:15:00,
2013-01-11 03:25:00,23.4,19.3,30.51,West,281,0.0,0.0,84,0.00,,,0.00,VWS V14.01,2013-01-11 08:25:00,
2013-01-11 03:30:00,23.4,19.3,30.51,WNW,282,0.0,0.0,84,0.00,,,0.00,VWS V14.01,2013-01-11 08:30:00,
2013-01-11 03:35:00,23.2,19.4,30.52,West,281,0.0,0.0,85,0.00,,,0.00,VWS V14.01,2013-01-11 08:35:00,
2013-01-11 03:40:00,23.2,19.4,30.52,West,281,0.0,0.0,85,0.00,,,0.00,VWS V14.01,2013-01-11 08:40:00,
2013-01-11 03:50:00,22.9,19.1,30.51,WNW,282,0.0,0.0,85,0.00,,,0.00,VWS V14.01,2013-01-11 08:50:00,
2013-01-11 03:55:00,22.8,19.0,30.51,West,281,0.0,0.0,85,0.00,,,0.00,VWS V14.01,2013-01-11 08:55:00,
2013-01-11 04:00:00,22.6,19.0,30.51,West,281,0.0,0.0,86,0.00,,,0.00,VWS V14.01,2013-01-11 09:00:00,
2013-01-11 04:10:00,22.5,19.0,30.51,WNW,282,0.0,0.0,86,0.00,,,0.00,VWS V14.01,2013-01-11 09:10:00,
2013-01-11 04:15:00,22.3,18.8,30.51,North,350,1.5,1.5,86,0.00,,,0.00,VWS V14.01,2013-01-11 09:15:00,
2013-01-11 04:20:00,22.3,18.8,30.51,North,351,0.0,1.5,86,0.00,,,0.00,VWS V14.01,2013-01-11 09:20:00,
2013-01-11 04:30:00,22.0,18.5,30.51,North,351,0.0,1.5,86,0.00,,,0.00,VWS V14.01,2013-01-11 09:30:00,
2013-01-11 04:35:00,22.0,18.7,30.51,North,350,0.0,1.5,87,0.00,,,0.00,VWS V14.01,2013-01-11 09:35:00,
2013-01-11 04:40:00,22.0,18.7,30.51,North,350,0.0,0.0,87,0.00,,,0.00,VWS V14.01,2013-01-11 09:40:00,
2013-01-11 04:45:00,22.0,18.5,30.51,North,351,0.0,0.0,86,0.00,,,0.00,VWS V14.01,2013-01-11 09:45:00,
2013-01-11 04:55:00,21.7,18.2,30.51,North,351,0.0,0.0,86,0.00,,,0.00,VWS V14.01,2013-01-11 09:55:00,
2013-01-11 05:05:00,21.5,18.2,30.51,North,351,0.0,0.0,87,0.00,,,0.00,VWS V14.01,2013-01-11 10:05:00,
2013-01-11 05:10:00,21.5,18.2,30.51,North,351,0.0,0.0,87,0.00,,,0.00,VWS V14.01,2013-01-11 10:10:00,
2013-01-11 05:15:00,21.5,18.2,30.51,North,350,0.0,0.0,87,0.00,,,0.00,VWS V14.01,2013-01-11 10:15:00,
2013-01-11 05:25:00,21.2,17.9,30.51,North,351,0.0,0.0,87,0.00,,,0.00,VWS V14.01,2013-01-11 10:25:00,
2013-01-11 05:30:00,21.2,17.9,30.51,North,350,0.0,0.0,87,0.00,,,0.00,VWS V14.01,2013-01-11 10:30:00,
2013-01-11 05:35:00,21.2,17.9,30.52,North,350,0.0,0.0,87,0.00,,,0.00,VWS V14.01,2013-01-11 10:35:00,
2013-01-11 05:45:00,21.1,17.8,30.52,North,351,0.0,0.0,87,0.00,,,0.00,VWS V14.01,2013-01-11 10:45:00,
2013-01-11 05:50:00,20.9,17.6,30.53,North,351,0.0,0.0,87,0.00,,,0.00,VWS V14.01,2013-01-11 10:50:00,
2013-01-11 05:55:00,20.9,17.9,30.53,North,351,0.0,0.0,88,0.00,,,0.00,VWS V14.01,2013-01-11 10:55:00,
2013-01-11 06:05:00,20.8,17.8,30.53,North,351,0.0,0.0,88,0.00,,,0.00,VWS V14.01,2013-01-11 11:05:00,
2013-01-11 06:10:00,20.6,17.6,30.53,North,350,0.0,0.0,88,0.00,,,0.00,VWS V14.01,2013-01-11 11:10:00,
2013-01-11 06:20:00,20.6,17.6,30.53,North,351,0.0,0.0,88,0.00,,,0.00,VWS V14.01,2013-01-11 11:20:00,
2013-01-11 06:25:00,20.6,17.6,30.53,North,350,0.0,0.0,88,0.00,,,0.00,VWS V14.01,2013-01-11 11:25:00,
2013-01-11 06:30:00,20.4,17.4,30.53,North,351,0.0,0.0,88,0.00,,,0.00,VWS V14.01,2013-01-11 11:30:00,
2013-01-11 06:35:00,20.4,17.4,30.53,North,350,0.0,0.0,88,0.00,,,0.00,VWS V14.01,2013-01-11 11:35:00,
2013-01-11 06:45:00,20.4,17.7,30.53,North,351,0.0,0.0,89,0.00,,,0.00,VWS V14.01,2013-01-11 11:45:00,
2013-01-11 06:50:00,20.3,17.6,30.54,North,351,0.0,0.0,89,0.00,,,0.00,VWS V14.01,2013-01-11 11:50:00,
2013-01-11 06:55:00,20.3,17.6,30.54,North,351,0.0,0.0,89,0.00,,,0.00,VWS V14.01,2013-01-11 11:55:00,
2013-01-11 07:05:00,20.1,17.4,30.54,North,351,0.0,0.0,89,0.00,,,0.00,VWS V14.01,2013-01-11 12:05:00,
2013-01-11 07:15:00,20.0,17.3,30.54,North,351,0.0,0.0,89,0.00,,,0.00,VWS V14.01,2013-01-11 12:15:00,
2013-01-11 07:20:00,20.0,17.3,30.54,North,351,0.0,0.0,89,0.00,,,0.00,VWS V14.01,2013-01-11 12:20:00,
2013-01-11 07:25:00,20.0,17.3,30.54,North,350,0.0,0.0,89,0.00,,,0.00,VWS V14.01,2013-01-11 12:25:00,
2013-01-11 07:35:00,20.0,17.3,30.54,North,351,0.0,0.0,89,0.00,,,0.00,VWS V14.01,2013-01-11 12:35:00,
2013-01-11 07:40:00,20.1,17.4,30.54,North,350,0.0,0.0,89,0.00,,,0.00,VWS V14.01,2013-01-11 12:40:00,
2013-01-11 07:45:00,20.1,17.4,30.54,North,351,0.0,0.0,89,0.00,,,0.00,VWS V14.01,2013-01-11 12:45:00,
2013-01-11 07:50:00,20.1,17.4,30.54,North,350,0.0,0.0,89,0.00,,,0.00,VWS V14.01,2013-01-11 12:50:00,
2013-01-11 07:55:00,20.3,17.6,30.54,North,351,0.0,0.0,89,0.00,,,0.00,VWS V14.01,2013-01-11 12:55:00,
2013-01-11 08:05:00,20.6,17.9,30.54,North,351,0.0,0.0,89,0.00,,,0.00,VWS V14.01,2013-01-11 13:05:00,
2013-01-11 08:10:00,20.8,18.1,30.54,North,351,0.0,1.5,89,0.00,,,0.00,VWS V14.01,2013-01-11 13:10:00,
2013-01-11 08:15:00,21.1,18.4,30.54,North,350,0.0,1.5,89,0.00,,,0.00,VWS V14.01,2013-01-11 13:15:00,
2013-01-11 08:25:00,21.9,19.2,30.54,North,350,0.0,1.5,89,0.00,,,0.00,VWS V14.01,2013-01-11 13:25:00,
2013-01-11 08:30:00,22.2,19.5,30.54,North,351,0.0,1.5,89,0.00,,,0.00,VWS V14.01,2013-01-11 13:30:00,
2013-01-11 08:35:00,22.3,19.3,30.54,North,351,0.0,1.5,88,0.00,,,0.00,VWS V14.01,2013-01-11 13:35:00,
2013-01-11 08:45:00,22.9,19.9,30.54,North,351,0.0,0.0,88,0.00,,,0.00,VWS V14.01,2013-01-11 13:45:00,
2013-01-11 08:50:00,23.2,19.9,30.53,North,351,0.0,0.0,87,0.00,,,0.00,VWS V14.01,2013-01-11 13:50:00,
2013-01-11 08:55:00,23.5,19.9,30.53,North,350,0.0,0.0,86,0.00,,,0.00,VWS V14.01,2013-01-11 13:55:00,
2013-01-11 09:05:00,24.1,20.2,30.53,North,350,0.0,0.0,85,0.00,,,0.00,VWS V14.01,2013-01-11 14:05:00,
2013-01-11 09:10:00,24.4,20.5,30.53,North,351,0.0,0.0,85,0.00,,,0.00,VWS V14.01,2013-01-11 14:10:00,
2013-01-11 09:20:00,25.3,20.9,30.53,North,351,0.0,0.0,83,0.00,,,0.00,VWS V14.01,2013-01-11 14:20:00,
2013-01-11 09:25:00,25.7,20.4,30.53,North,350,0.0,0.0,80,0.00,,,0.00,VWS V14.01,2013-01-11 14:25:00,
2013-01-11 09:35:00,25.7,20.1,30.53,North,351,0.0,0.0,79,0.00,,,0.00,VWS V14.01,2013-01-11 14:35:00,
2013-01-11 09:40:00,25.7,20.4,30.53,North,351,0.0,0.0,80,0.00,,,0.00,VWS V14.01,2013-01-11 14:40:00,
2013-01-11 09:50:00,26.3,21.0,30.53,North,351,0.0,3.0,80,0.00,,,0.00,VWS V14.01,2013-01-11 14:50:00,
2013-01-11 09:55:00,26.6,21.3,30.53,North,351,0.0,3.0,80,0.00,,,0.00,VWS V14.01,2013-01-11 14:55:00,
2013-01-11 10:00:00,27.1,21.8,30.53,North,351,0.0,3.0,80,0.00,,,0.00,VWS V14.01,2013-01-11 15:00:00,
2013-01-11 10:10:00,27.7,21.8,30.52,North,351,0.0,0.0,78,0.00,,,0.00,VWS V14.01,2013-01-11 15:10:00,
2013-01-11 10:15:00,28.0,22.0,30.52,North,351,0.0,0.0,78,0.00,,,0.00,VWS V14.01,2013-01-11 15:15:00,
2013-01-11 10:25:00,28.5,21.6,30.51,North,351,0.0,0.0,75,0.00,,,0.00,VWS V14.01,2013-01-11 15:25:00,
2013-01-11 10:30:00,28.5,21.6,30.51,North,351,0.0,0.0,75,0.00,,,0.00,VWS V14.01,2013-01-11 15:30:00,
2013-01-11 10:35:00,28.5,21.3,30.50,North,350,0.0,1.5,74,0.00,,,0.00,VWS V14.01,2013-01-11 15:35:00,
2013-01-11 10:40:00,28.7,21.5,30.50,North,351,0.0,1.5,74,0.00,,,0.00,VWS V14.01,2013-01-11 15:40:00,
2013-01-11 10:45:00,28.7,21.5,30.50,North,351,0.0,1.5,74,0.00,,,0.00,VWS V14.01,2013-01-11 15:45:00,
2013-01-11 10:55:00,28.8,21.6,30.49,North,351,0.0,1.5,74,0.00,,,0.00,VWS V14.01,2013-01-11 15:55:00,
2013-01-11 11:05:00,29.1,21.5,30.48,NNW,348,0.0,1.5,73,0.00,,,0.00,VWS V14.01,2013-01-11 16:05:00,
2013-01-11 11:15:00,29.4,21.8,30.48,NNW,348,0.0,1.5,73,0.00,,,0.00,VWS V14.01,2013-01-11 16:15:00,
2013-01-11 11:20:00,29.6,21.7,30.47,NNW,348,0.0,1.5,72,0.00,,,0.00,VWS V14.01,2013-01-11 16:20:00,
2013-01-11 11:30:00,30.2,22.6,30.47,NNW,348,0.0,0.0,73,0.00,,,0.00,VWS V14.01,2013-01-11 16:30:00,
2013-01-11 11:40:00,31.1,22.8,30.46,NNW,348,0.0,0.0,71,0.00,,,0.00,VWS V14.01,2013-01-11 16:40:00,
2013-01-11 11:45:00,31.2,22.9,30.46,NNW,348,0.0,0.0,71,0.00,,,0.00,VWS V14.01,2013-01-11 16:45:00,
2013-01-11 11:50:00,31.2,22.9,30.44,North,349,0.0,0.0,71,0.00,,,0.00,VWS V14.01,2013-01-11 16:50:00,
2013-01-11 11:55:00,30.8,22.2,30.44,NNW,347,0.0,0.0,70,0.00,,,0.00,VWS V14.01,2013-01-11 16:55:00,
2013-01-11 12:00:00,30.5,22.2,30.44,North,349,0.0,1.5,71,0.00,,,0.00,VWS V14.01,2013-01-11 17:00:00,
2013-01-11 12:10:00,30.6,22.3,30.43,NNW,348,0.0,3.0,71,0.00,,,0.00,VWS V14.01,2013-01-11 17:10:00,
2013-01-11 12:15:00,31.1,22.8,30.43,NNW,348,0.0,3.0,71,0.00,,,0.00,VWS V14.01,2013-01-11 17:15:00,
2013-01-11 12:25:00,31.9,22.9,30.43,North,349,0.0,3.0,69,0.00,,,0.00,VWS V14.01,2013-01-11 17:25:00,
2013-01-11 12:35:00,32.5,23.5,30.43,North,349,0.0,1.5,69,0.00,,,0.00,VWS V14.01,2013-01-11 17:35:00,
2013-01-11 12:45:00,32.5,24.2,30.43,NNW,348,0.0,1.5,71,0.00,,,0.00,VWS V14.01,2013-01-11 17:45:00,
2013-01-11 12:55:00,32.5,23.1,30.43,NNW,348,0.0,0.0,68,0.00,,,0.00,VWS V14.01,2013-01-11 17:55:00,
2013-01-11 13:00:00,33.0,23.6,30.43,NNW,347,0.0,0.0,68,0.00,,,0.00,VWS V14.01,2013-01-11 18:00:00,
2013-01-11 13:10:00,33.3,23.2,30.43,NNW,347,0.0,0.0,66,0.00,,,0.00,VWS V14.01,2013-01-11 18:10:00,
2013-01-11 13:20:00,32.5,24.2,30.42,NNW,347,0.0,1.5,71,0.00,,,0.00,VWS V14.01,2013-01-11 18:20:00,
2013-01-11 13:30:00,32.4,24.1,30.42,NNW,348,0.0,1.5,71,0.00,,,0.00,VWS V14.01,2013-01-11 18:30:00,
2013-01-11 13:40:00,32.7,23.3,30.42,NNW,348,0.0,0.0,68,0.00,,,0.00,VWS V14.01,2013-01-11 18:40:00,
2013-01-11 13:50:00,32.8,23.8,30.42,NNW,347,0.0,1.5,69,0.00,,,0.00,VWS V14.01,2013-01-11 18:50:00,
2013-01-11 13:55:00,32.8,23.8,30.42,NNW,347,1.5,1.5,69,0.00,,,0.00,VWS V14.01,2013-01-11 18:55:00,
2013-01-11 14:00:00,32.8,23.1,30.42,NNW,347,0.0,1.5,67,0.00,,,0.00,VWS V14.01,2013-01-11 19:00:00,
2013-01-11 14:05:00,33.1,23.7,30.41,NNW,348,0.0,1.5,68,0.00,,,0.00,VWS V14.01,2013-01-11 19:05:00,
2013-01-11 14:10:00,33.3,23.9,30.41,NNW,348,6.0,6.0,68,0.00,,,0.00,VWS V14.01,2013-01-11 19:10:00,
2013-01-11 14:20:00,33.3,23.9,30.40,SE,137,1.5,6.0,68,0.00,,,0.00,VWS V14.01,2013-01-11 19:20:00,
2013-01-11 14:25:00,33.3,22.8,30.40,SE,137,3.0,6.0,65,0.00,,,0.00,VWS V14.01,2013-01-11 19:25:00,
2013-01-11 14:30:00,33.4,22.9,30.40,SE,137,0.0,6.0,65,0.00,,,0.00,VWS V14.01,2013-01-11 19:30:00,
2013-01-11 14:40:00,33.6,24.5,30.41,SE,137,1.5,6.0,69,0.00,,,0.00,VWS V14.01,2013-01-11 19:40:00,
2013-01-11 14:45:00,33.4,22.5,30.41,SE,137,1.5,4.5,64,0.00,,,0.00,VWS V14.01,2013-01-11 19:45:00,
2013-01-11 14:55:00,33.4,22.5,30.40,SE,135,0.0,4.5,64,0.00,,,0.00,VWS V14.01,2013-01-11 19:55:00,
2013-01-11 15:00:00,33.4,22.5,30.40,SE,131,1.5,4.5,64,0.00,,,0.00,VWS V14.01,2013-01-11 20:00:00,
2013-01-11 15:05:00,33.4,22.5,30.39,East,97,0.0,4.5,64,0.00,,,0.00,VWS V14.01,2013-01-11 20:05:00,
2013-01-11 15:15:00,33.3,23.2,30.39,East,99,0.0,4.5,66,0.00,,,0.00,VWS V14.01,2013-01-11 20:15:00,
2013-01-11 15:20:00,33.3,23.2,30.38,East,98,3.0,4.5,66,0.00,,,0.00,VWS V14.01,2013-01-11 20:20:00,
2013-01-11 15:25:00,33.3,21.7,30.38,East,98,0.0,4.5,62,0.00,,,0.00,VWS V14.01,2013-01-11 20:25:00,
2013-01-11 15:30:00,33.4,21.8,30.38,East,98,0.0,4.5,62,0.00,,,0.00,VWS V14.01,2013-01-11 20:30:00,
2013-01-11 15:40:00,33.6,22.4,30.37,East,97,0.0,4.5,63,0.00,,,0.00,VWS V14.01,2013-01-11 20:40:00,
2013-01-11 15:50:00,33.6,22.0,30.35,ESE,113,1.5,4.5,62,0.00,,,0.00,VWS V14.01,2013-01-11 20:50:00,
2013-01-11 15:55:00,33.6,22.0,30.35,East,94,0.0,6.0,62,0.00,,,0.00,VWS V14.01,2013-01-11 20:55:00,
2013-01-11 16:00:00,33.6,22.7,30.35,East,95,0.0,6.0,64,0.00,,,0.00,VWS V14.01,2013-01-11 21:00:00,
2013-01-11 16:06:00,33.4,22.5,30.35,East,94,1.5,6.0,64,0.00,,,0.00,VWS V14.01,2013-01-11 21:06:00,
2013-01-11 16:16:00,33.4,22.9,30.35,East,95,0.0,6.0,65,0.00,,,0.00,VWS V14.01,2013-01-11 21:16:00,
2013-01-11 16:25:00,33.3,22.8,30.35,East,94,0.0,1.5,65,0.00,,,0.00,VWS V14.01,2013-01-11 21:25:00,
2013-01-11 16:35:00,33.1,24.4,30.35,East,95,0.0,0.0,70,0.00,,,0.00,VWS V14.01,2013-01-11 21:35:00,
2013-01-11 16:40:00,33.0,24.3,30.35,East,95,0.0,0.0,70,0.00,,,0.00,VWS V14.01,2013-01-11 21:40:00,
2013-01-11 16:50:00,32.7,24.4,30.35,East,95,0.0,1.5,71,0.00,,,0.00,VWS V14.01,2013-01-11 21:50:00,
2013-01-11 16:55:00,32.7,24.4,30.35,East,95,0.0,1.5,71,0.00,,,0.00,VWS V14.01,2013-01-11 21:55:00,
2013-01-11 17:05:00,32.8,22.0,30.35,East,95,0.0,4.5,64,0.00,,,0.00,VWS V14.01,2013-01-11 22:05:00,
2013-01-11 17:10:00,33.1,21.5,30.35,East,95,0.0,4.5,62,0.00,,,0.00,VWS V14.01,2013-01-11 22:10:00,
2013-01-11 17:20:00,33.3,21.7,30.35,East,95,1.5,4.5,62,0.00,,,0.00,VWS V14.01,2013-01-11 22:20:00,
2013-01-11 17:30:00,33.3,21.7,30.35,East,95,0.0,4.5,62,0.00,,,0.00,VWS V14.01,2013-01-11 22:30:00,
2013-01-11 17:35:00,33.3,21.7,30.35,East,95,0.0,4.5,62,0.00,,,0.00,VWS V14.01,2013-01-11 22:35:00,
2013-01-11 17:45:00,33.3,22.5,30.35,ESE,110,3.0,4.5,64,0.00,,,0.00,VWS V14.01,2013-01-11 22:45:00,
2013-01-11 17:50:00,33.1,22.3,30.34,ESE,115,4.5,4.5,64,0.00,,,0.00,VWS V14.01,2013-01-11 22:50:00,
2013-01-11 18:00:00,33.1,22.6,30.34,ESE,116,3.0,6.0,65,0.00,,,0.00,VWS V14.01,2013-01-11 23:00:00,
2013-01-11 18:05:00,33.0,22.9,30.33,ESE,112,4.5,7.5,66,0.00,,,0.00,VWS V14.01,2013-01-11 23:05:00,
2013-01-11 18:15:00,33.0,23.2,30.33,ESE,123,3.0,7.5,67,0.00,,RA,0.00,VWS V14.01,2013-01-11 23:15:00,
2013-01-11 18:25:00,32.8,24.1,30.34,SE,124,3.0,7.5,70,0.00,,RA,0.00,VWS V14.01,2013-01-11 23:25:00,
2013-01-11 18:30:00,32.7,24.0,30.34,East,100,3.0,7.5,70,0.00,,RA,0.00,VWS V14.01,2013-01-11 23:30:00,
2013-01-11 18:40:00,32.5,24.2,30.33,ESE,106,0.0,6.0,71,0.00,,RA,0.00,VWS V14.01,2013-01-11 23:40:00,
2013-01-11 18:45:00,32.4,24.4,30.33,East,101,4.5,7.5,72,0.00,,RA,0.00,VWS V14.01,2013-01-11 23:45:00,
2013-01-11 18:55:00,32.4,24.7,30.32,East,96,4.5,7.5,73,0.00,,RA,0.00,VWS V14.01,2013-01-11 23:55:00,
2013-01-11 19:06:00,32.2,24.5,30.32,ESE,104,4.5,9.0,73,0.00,,RA,0.00,VWS V14.01,2013-01-12 00:06:00,
2013-01-11 19:15:00,32.4,24.7,30.32,ESE,113,6.0,9.0,73,0.00,,,0.00,VWS V14.01,2013-01-12 00:15:00,
2013-01-11 19:25:00,32.2,25.8,30.31,ESE,111,6.0,9.0,77,0.00,,,0.00,VWS V14.01,2013-01-12 00:25:00,
2013-01-11 19:35:00,31.9,26.4,30.32,ESE,103,3.0,9.0,80,0.01,,,0.01,VWS V14.01,2013-01-12 00:35:00,
2013-01-11 19:40:00,31.8,26.6,30.32,ESE,103,3.0,7.5,81,0.01,,,0.01,VWS V14.01,2013-01-12 00:40:00,
2013-01-11 19:50:00,31.5,26.9,30.32,ESE,104,0.0,6.0,83,0.02,,,0.02,VWS V14.01,2013-01-12 00:50:00,
2013-01-11 20:00:00,31.4,27.4,30.32,ESE,104,0.0,3.0,85,0.03,,,0.03,VWS V14.01,2013-01-12 01:00:00,
2013-01-11 20:06:00,31.4,27.7,30.32,ESE,104,0.0,3.0,86,0.04,,,0.04,VWS V14.01,2013-01-12 01:06:00,
2013-01-11 20:15:00,31.4,27.7,30.32,ESE,104,0.0,0.0,86,0.04,,,0.04,VWS V14.01,2013-01-12 01:15:00,
2013-01-11 20:20:00,31.4,28.0,30.32,ESE,104,0.0,1.5,87,0.04,,,0.04,VWS V14.01,2013-01-12 01:20:00,
2013-01-11 20:30:00,31.4,28.3,30.32,ESE,104,0.0,3.0,88,0.04,,,0.04,VWS V14.01,2013-01-12 01:30:00,
2013-01-11 20:35:00,31.4,28.3,30.31,ESE,104,1.5,3.0,88,0.05,,,0.05,VWS V14.01,2013-01-12 01:35:00,
2013-01-11 20:45:00,31.4,28.5,30.31,ESE,104,1.5,3.0,89,0.04,,,0.05,VWS V14.01,2013-01-12 01:45:00,
2013-01-11 20:50:00,31.4,28.5,30.30,ESE,104,3.0,4.5,89,0.03,,,0.05,VWS V14.01,2013-01-12 01:50:00,
2013-01-11 21:00:00,31.4,28.8,30.30,ESE,103,1.5,4.5,90,0.04,,,0.06,VWS V14.01,2013-01-12 02:00:00,
2013-01-11 21:06:00,31.4,28.8,30.30,ESE,104,0.0,4.5,90,0.03,,,0.06,VWS V14.01,2013-01-12 02:06:00,
2013-01-11 21:15:00,31.5,28.9,30.30,ESE,103,0.0,4.5,90,0.03,,,0.07,VWS V14.01,2013-01-12 02:15:00,
2013-01-11 21:20:00,31.5,28.9,30.30,ESE,104,0.0,4.5,90,0.04,,,0.08,VWS V14.01,2013-01-12 02:20:00,
2013-01-11 21:30:00,31.5,29.2,30.30,ESE,104,0.0,0.0,91,0.05,,,0.09,VWS V14.01,2013-01-12 02:30:00,
2013-01-11 21:35:00,31.5,29.2,30.30,ESE,103,0.0,0.0,91,0.05,,,0.09,VWS V14.01,2013-01-12 02:35:00,
2013-01-11 21:45:00,31.5,29.2,30.30,ESE,104,0.0,0.0,91,0.04,,,0.09,VWS V14.01,2013-01-12 02:45:00,
2013-01-11 21:50:00,31.5,29.2,30.29,ESE,104,0.0,1.5,91,0.05,,,0.10,VWS V14.01,2013-01-12 02:50:00,
2013-01-11 22:00:00,31.5,29.5,30.29,ESE,104,0.0,1.5,92,0.04,,,0.10,VWS V14.01,2013-01-12 03:00:00,
2013-01-11 22:06:00,31.5,29.5,30.28,ESE,104,0.0,1.5,92,0.04,,,0.10,VWS V14.01,2013-01-12 03:06:00,
2013-01-11 22:15:00,31.7,29.6,30.28,ESE,103,0.0,1.5,92,0.03,,,0.10,VWS V14.01,2013-01-12 03:15:00,
2013-01-11 22:20:00,31.7,29.6,30.29,ESE,103,0.0,1.5,92,0.03,,,0.10,VWS V14.01,2013-01-12 03:20:00,
2013-01-11 22:30:00,31.7,29.6,30.29,ESE,104,0.0,1.5,92,0.02,,,0.10,VWS V14.01,2013-01-12 03:30:00,
2013-01-11 22:40:00,31.7,29.6,30.28,ESE,104,0.0,1.5,92,0.02,,,0.11,VWS V14.01,2013-01-12 03:40:00,
2013-01-11 22:45:00,31.7,29.6,30.28,ESE,104,0.0,1.5,92,0.02,,,0.11,VWS V14.01,2013-01-12 03:45:00,
2013-01-11 22:55:00,31.5,29.5,30.29,ESE,104,0.0,1.5,92,0.02,,,0.12,VWS V14.01,2013-01-12 03:55:00,
2013-01-11 23:00:00,31.5,29.5,30.29,ESE,104,0.0,0.0,92,0.02,,,0.12,VWS V14.01,2013-01-12 04:00:00,
2013-01-11 23:05:00,31.5,29.5,30.28,ESE,104,0.0,0.0,92,0.02,,,0.12,VWS V14.01,2013-01-12 04:05:00,
2013-01-11 23:15:00,31.4,29.4,30.28,ESE,104,0.0,0.0,92,0.03,,,0.13,VWS V14.01,2013-01-12 04:15:00,